Login to view Products
 
Friday, March 22, 2019 (10:05 UTC)
Sharjah International Airport
ICAO: OMSJ
IATA: SHJ
  • METAR OMSJ 221000Z 35008KT 9999 FEW040 29/13 Q1014=
  • TAF OMSJ 220454Z 2206/2312 07010KT 8000 NSC BECMG 2206/2208 19008KT PROB30 TEMPO 2206/2214 VRB15G25KT 3000 SHRA BLDU FEW040TCU BECMG 2209/2211 36014KT BECMG 2214/2216 07008KT PROB30 TEMPO 2220/2310 VRB18G30KT 3000 TSRA BLDU FEW040CB BECMG 2309/2311 01014KT=
D:\Input Parser\Destinations\Final\04\OMSJL06120454768330629.txt
1